Black, Alabama
Current Conditions -  °F | °C
As of 2:58 PM on Friday 19 Dec 2014 (Local Time) from K1J0 Reporting Station
Scattered Clouds Scattered Clouds  
Wind Chill: 59°   Ceiling: Unl
Heat Index: 59°   Visibility: 10mi
Dew Point: 39°   Wind: 3mph
Humidity: 48%   Direction: NA
Pressure: 30.09"   Gusts: NA
Location:  31.01°N, 85.74°W
Report Text: K1J0 192058Z AUTO VRB03KT 10SM SCT110 15/04 A3009 RMK AO2 SLP174 T01500039 56023
Loading
Personal Weather Stations






























Interactive Weather Map New forecast layout! Learn more

10-Day Weather Forecast

Advertisements
Track Severe Weather on mobile